Aérodrome :
LOGIN :

S'inscrire | Disclaimer

   EN    FR    IT 

 










Légende :    VFR   VFR Marginal   IFR   IFR Intensif   IFR Très Intensif
Visi : 
Plafond : 
>= 8 km
>= 3000ft
5 à 8 km
1000 à 3000 ft
1500m à 5 km
500 à 1000 ft
800 à 1500m
200 à 500 ft
< 800m
< 200 ft
Symboles :   Orages  Brouillard  Fortes neiges  Fortes précipitations  Vent > 20 kt
SIGMETs :   Divers  Orages  Givrage  Turbulence  Onde Orograph.  Cendres Volcan.






- Altitude de l'aérodrome : 170 ft
- Code IATA : KRP


EKKA - Karup

DERNIER METAR :
  • 140620Z AUTO 19007KT 9999 NCD 03/02 Q1002 TEMPO -SHRA FEW020CB

METARs EXPIRÉS :
  • 140550Z AUTO 19007KT 9999 NCD 03/02 Q1001 TEMPO -SHRA FEW020CB
  • 140520Z AUTO 18007KT 9999 NCD 03/02 Q1001
  • 140450Z AUTO 18006KT 9999 NCD 03/02 Q1000
  • 140420Z AUTO 18007KT 9999 NCD 03/02 Q1000
  • 140350Z AUTO 17006KT 9999 FEW034/// FEW047/// 03/02 Q1000

TAF TAF EKKA
Valide du 14 à 06h jusqu'au 15 à 06h UTC


140509Z 1406/1506 17006KT 9999 SCT030
TEMPO 1406/1410 5000 -SHRA BR FEW020CB
BECMG 1410/1412 1800 BR BKN003
TEMPO 1412/1417 5000 BKN006
BECMG 1417/1419 09008KT 8000 NSW SCT015
TEMPO 1419/1506 4000 BR BKN010



MET'MAP, la Météo Aéronautique d'un coup d'oeil ! - Copyright ORBIFLY Décembre 2007 - Disclaimer

ORBIFLY MET'MAP TEAM :

Programmation & Développement : Alexandra Zaïnal
Conception & Développement : Baudouin d'Aumeries
Co-Programmation & Développement : Marc-Olivier Méhu
Soutien technique & logistique : Manuel Goepfert

Contact : metmap@orbifly.com




SOURCES & CREDITS :

   NOAA